sensor_id;sensor_type;location;lat;lon;timestamp;temperature;humidity
22940;DHT22;11636;52.086;5.090;2023-04-21T00:00:45;8.30;99.90
22940;DHT22;11636;52.086;5.090;2023-04-21T00:03:33;8.30;99.90
22940;DHT22;11636;52.086;5.090;2023-04-21T00:06:30;8.30;99.90
22940;DHT22;11636;52.086;5.090;2023-04-21T00:09:19;8.30;99.90
22940;DHT22;11636;52.086;5.090;2023-04-21T00:12:14;8.30;99.90
22940;DHT22;11636;52.086;5.090;2023-04-21T00:15:08;8.30;99.90
22940;DHT22;11636;52.086;5.090;2023-04-21T00:17:55;8.30;99.90
22940;DHT22;11636;52.086;5.090;2023-04-21T00:20:52;8.30;99.90
22940;DHT22;11636;52.086;5.090;2023-04-21T00:23:39;8.40;99.90
22940;DHT22;11636;52.086;5.090;2023-04-21T00:26:33;8.30;99.90
22940;DHT22;11636;52.086;5.090;2023-04-21T00:29:20;8.30;99.90
22940;DHT22;11636;52.086;5.090;2023-04-21T00:32:14;8.30;99.90
22940;DHT22;11636;52.086;5.090;2023-04-21T00:35:02;8.30;99.90
22940;DHT22;11636;52.086;5.090;2023-04-21T00:37:56;8.30;99.90
22940;DHT22;11636;52.086;5.090;2023-04-21T00:40:43;8.30;99.90
22940;DHT22;11636;52.086;5.090;2023-04-21T00:43:39;8.30;99.90
22940;DHT22;11636;52.086;5.090;2023-04-21T00:46:44;8.30;99.90
22940;DHT22;11636;52.086;5.090;2023-04-21T00:49:38;8.30;99.90
22940;DHT22;11636;52.086;5.090;2023-04-21T00:52:33;8.20;99.90
22940;DHT22;11636;52.086;5.090;2023-04-21T00:55:27;8.20;99.90
22940;DHT22;11636;52.086;5.090;2023-04-21T00:58:21;8.20;99.90
22940;DHT22;11636;52.086;5.090;2023-04-21T01:01:08;8.30;99.90
22940;DHT22;11636;52.086;5.090;2023-04-21T01:04:03;8.20;99.90
22940;DHT22;11636;52.086;5.090;2023-04-21T01:06:51;8.20;99.90
22940;DHT22;11636;52.086;5.090;2023-04-21T01:09:45;8.20;99.90
22940;DHT22;11636;52.086;5.090;2023-04-21T01:12:32;8.20;99.90
22940;DHT22;11636;52.086;5.090;2023-04-21T01:15:26;8.20;99.90
22940;DHT22;11636;52.086;5.090;2023-04-21T01:18:16;8.20;99.90
22940;DHT22;11636;52.086;5.090;2023-04-21T01:21:11;8.20;99.90
22940;DHT22;11636;52.086;5.090;2023-04-21T01:23:59;8.10;99.90
22940;DHT22;11636;52.086;5.090;2023-04-21T01:26:52;8.20;99.90
22940;DHT22;11636;52.086;5.090;2023-04-21T01:29:49;8.10;99.90
22940;DHT22;11636;52.086;5.090;2023-04-21T01:32:36;8.10;99.90
22940;DHT22;11636;52.086;5.090;2023-04-21T01:35:30;8.10;99.90
22940;DHT22;11636;52.086;5.090;2023-04-21T01:38:17;8.10;99.90
22940;DHT22;11636;52.086;5.090;2023-04-21T01:41:11;8.10;99.90
22940;DHT22;11636;52.086;5.090;2023-04-21T01:43:58;8.20;99.90
22940;DHT22;11636;52.086;5.090;2023-04-21T01:46:53;8.20;99.90
22940;DHT22;11636;52.086;5.090;2023-04-21T01:49:40;8.20;99.90
22940;DHT22;11636;52.086;5.090;2023-04-21T01:52:34;8.20;99.90
22940;DHT22;11636;52.086;5.090;2023-04-21T01:55:21;8.10;99.90
22940;DHT22;11636;52.086;5.090;2023-04-21T01:58:15;8.10;99.90
22940;DHT22;11636;52.086;5.090;2023-04-21T02:01:02;8.10;99.90
22940;DHT22;11636;52.086;5.090;2023-04-21T02:03:56;8.10;99.90
22940;DHT22;11636;52.086;5.090;2023-04-21T02:06:43;8.10;99.90
22940;DHT22;11636;52.086;5.090;2023-04-21T02:09:37;8.10;99.90
22940;DHT22;11636;52.086;5.090;2023-04-21T02:12:24;8.20;99.90
22940;DHT22;11636;52.086;5.090;2023-04-21T02:15:18;8.20;99.90
22940;DHT22;11636;52.086;5.090;2023-04-21T02:18:12;8.20;99.90
22940;DHT22;11636;52.086;5.090;2023-04-21T02:21:07;8.20;99.90
22940;DHT22;11636;52.086;5.090;2023-04-21T02:24:01;8.20;99.90
22940;DHT22;11636;52.086;5.090;2023-04-21T02:26:48;8.20;99.90
22940;DHT22;11636;52.086;5.090;2023-04-21T02:29:42;8.20;99.90
22940;DHT22;11636;52.086;5.090;2023-04-21T02:32:29;8.20;99.90
22940;DHT22;11636;52.086;5.090;2023-04-21T02:35:24;8.20;99.90
22940;DHT22;11636;52.086;5.090;2023-04-21T02:38:11;8.20;99.90
22940;DHT22;11636;52.086;5.090;2023-04-21T02:41:05;8.20;99.90
22940;DHT22;11636;52.086;5.090;2023-04-21T02:43:52;8.20;99.90
22940;DHT22;11636;52.086;5.090;2023-04-21T02:46:46;8.20;99.90
22940;DHT22;11636;52.086;5.090;2023-04-21T02:49:33;8.20;99.90
22940;DHT22;11636;52.086;5.090;2023-04-21T02:52:27;8.20;99.90
22940;DHT22;11636;52.086;5.090;2023-04-21T02:55:21;8.20;99.90
22940;DHT22;11636;52.086;5.090;2023-04-21T02:58:08;8.20;99.90
22940;DHT22;11636;52.086;5.090;2023-04-21T03:01:03;8.20;99.90
22940;DHT22;11636;52.086;5.090;2023-04-21T03:03:50;8.20;99.90
22940;DHT22;11636;52.086;5.090;2023-04-21T03:06:44;8.20;99.90
22940;DHT22;11636;52.086;5.090;2023-04-21T03:09:31;8.20;99.90
22940;DHT22;11636;52.086;5.090;2023-04-21T03:12:25;8.20;99.90
22940;DHT22;11636;52.086;5.090;2023-04-21T03:15:12;8.20;99.90
22940;DHT22;11636;52.086;5.090;2023-04-21T03:18:06;8.20;99.90
22940;DHT22;11636;52.086;5.090;2023-04-21T03:20:58;8.20;99.90
22940;DHT22;11636;52.086;5.090;2023-04-21T03:23:52;8.10;99.90
22940;DHT22;11636;52.086;5.090;2023-04-21T03:26:39;8.10;99.90
22940;DHT22;11636;52.086;5.090;2023-04-21T03:29:34;8.10;99.90
22940;DHT22;11636;52.086;5.090;2023-04-21T03:32:22;8.10;99.90
22940;DHT22;11636;52.086;5.090;2023-04-21T03:35:15;8.10;99.90
22940;DHT22;11636;52.086;5.090;2023-04-21T03:38:02;8.10;99.90
22940;DHT22;11636;52.086;5.090;2023-04-21T03:40:56;8.10;99.90
22940;DHT22;11636;52.086;5.090;2023-04-21T03:43:50;8.10;99.90
22940;DHT22;11636;52.086;5.090;2023-04-21T03:46:40;8.10;99.90
22940;DHT22;11636;52.086;5.090;2023-04-21T03:49:41;8.10;99.90
22940;DHT22;11636;52.086;5.090;2023-04-21T03:52:28;8.10;99.90
22940;DHT22;11636;52.086;5.090;2023-04-21T03:55:21;8.10;99.90
22940;DHT22;11636;52.086;5.090;2023-04-21T03:58:08;8.10;99.90
22940;DHT22;11636;52.086;5.090;2023-04-21T04:01:04;8.10;99.90
22940;DHT22;11636;52.086;5.090;2023-04-21T04:03:52;8.10;99.90
22940;DHT22;11636;52.086;5.090;2023-04-21T04:06:46;8.10;99.90
22940;DHT22;11636;52.086;5.090;2023-04-21T04:09:34;8.10;99.90
22940;DHT22;11636;52.086;5.090;2023-04-21T04:12:27;8.10;99.90
22940;DHT22;11636;52.086;5.090;2023-04-21T04:15:14;8.10;99.90
22940;DHT22;11636;52.086;5.090;2023-04-21T04:18:08;8.10;99.90
22940;DHT22;11636;52.086;5.090;2023-04-21T04:21:05;8.10;99.90
22940;DHT22;11636;52.086;5.090;2023-04-21T04:23:56;8.10;99.90
22940;DHT22;11636;52.086;5.090;2023-04-21T04:26:49;8.10;99.90
22940;DHT22;11636;52.086;5.090;2023-04-21T04:29:37;8.10;99.90
22940;DHT22;11636;52.086;5.090;2023-04-21T04:32:30;8.20;99.90
22940;DHT22;11636;52.086;5.090;2023-04-21T04:35:19;8.20;99.90
22940;DHT22;11636;52.086;5.090;2023-04-21T04:38:13;8.20;99.90
22940;DHT22;11636;52.086;5.090;2023-04-21T04:41:01;8.20;99.90
22940;DHT22;11636;52.086;5.090;2023-04-21T04:43:55;8.20;99.90
22940;DHT22;11636;52.086;5.090;2023-04-21T04:46:46;8.20;99.90
22940;DHT22;11636;52.086;5.090;2023-04-21T04:49:41;8.20;99.90
22940;DHT22;11636;52.086;5.090;2023-04-21T04:52:28;8.30;99.90
22940;DHT22;11636;52.086;5.090;2023-04-21T04:55:22;8.20;99.90
22940;DHT22;11636;52.086;5.090;2023-04-21T04:58:09;8.30;99.90
22940;DHT22;11636;52.086;5.090;2023-04-21T05:01:13;8.30;99.90
22940;DHT22;11636;52.086;5.090;2023-04-21T05:04:01;8.30;99.90
22940;DHT22;11636;52.086;5.090;2023-04-21T05:06:55;8.30;99.90
22940;DHT22;11636;52.086;5.090;2023-04-21T05:09:43;8.30;99.90
22940;DHT22;11636;52.086;5.090;2023-04-21T05:12:36;8.30;99.90
22940;DHT22;11636;52.086;5.090;2023-04-21T05:15:30;8.30;99.90
22940;DHT22;11636;52.086;5.090;2023-04-21T05:18:17;8.30;99.90
22940;DHT22;11636;52.086;5.090;2023-04-21T05:21:11;8.30;99.90
22940;DHT22;11636;52.086;5.090;2023-04-21T05:23:58;8.30;99.90
22940;DHT22;11636;52.086;5.090;2023-04-21T05:26:52;8.40;99.90
22940;DHT22;11636;52.086;5.090;2023-04-21T05:29:46;8.40;99.90
22940;DHT22;11636;52.086;5.090;2023-04-21T05:32:40;8.40;99.90
22940;DHT22;11636;52.086;5.090;2023-04-21T05:35:30;8.40;99.90
22940;DHT22;11636;52.086;5.090;2023-04-21T05:38:24;8.40;99.90
22940;DHT22;11636;52.086;5.090;2023-04-21T05:41:13;8.50;99.90
22940;DHT22;11636;52.086;5.090;2023-04-21T05:44:06;8.50;99.90
22940;DHT22;11636;52.086;5.090;2023-04-21T05:46:53;8.60;99.90
22940;DHT22;11636;52.086;5.090;2023-04-21T05:49:50;8.60;99.90
22940;DHT22;11636;52.086;5.090;2023-04-21T05:52:39;8.60;99.90
22940;DHT22;11636;52.086;5.090;2023-04-21T05:55:34;8.70;99.90
22940;DHT22;11636;52.086;5.090;2023-04-21T05:58:21;8.70;99.90
22940;DHT22;11636;52.086;5.090;2023-04-21T06:01:14;8.70;99.90
22940;DHT22;11636;52.086;5.090;2023-04-21T06:04:01;8.80;99.90
22940;DHT22;11636;52.086;5.090;2023-04-21T06:06:56;8.80;99.90
22940;DHT22;11636;52.086;5.090;2023-04-21T06:09:49;8.90;99.90
22940;DHT22;11636;52.086;5.090;2023-04-21T06:12:37;9.00;99.90
22940;DHT22;11636;52.086;5.090;2023-04-21T06:15:30;9.00;99.90
22940;DHT22;11636;52.086;5.090;2023-04-21T06:18:17;9.10;99.90
22940;DHT22;11636;52.086;5.090;2023-04-21T06:21:11;9.10;99.90
22940;DHT22;11636;52.086;5.090;2023-04-21T06:23:59;9.00;99.90
22940;DHT22;11636;52.086;5.090;2023-04-21T06:26:52;9.10;99.90
22940;DHT22;11636;52.086;5.090;2023-04-21T06:29:40;9.10;99.90
22940;DHT22;11636;52.086;5.090;2023-04-21T06:32:34;9.20;99.90
22940;DHT22;11636;52.086;5.090;2023-04-21T06:35:29;9.30;99.90
22940;DHT22;11636;52.086;5.090;2023-04-21T06:38:22;9.40;99.90
22940;DHT22;11636;52.086;5.090;2023-04-21T06:41:17;9.40;99.90
22940;DHT22;11636;52.086;5.090;2023-04-21T06:44:04;9.50;99.90
22940;DHT22;11636;52.086;5.090;2023-04-21T06:46:57;9.50;99.90
22940;DHT22;11636;52.086;5.090;2023-04-21T06:49:51;9.60;99.90
22940;DHT22;11636;52.086;5.090;2023-04-21T06:52:45;9.60;99.90
22940;DHT22;11636;52.086;5.090;2023-04-21T06:55:32;9.70;99.90
22940;DHT22;11636;52.086;5.090;2023-04-21T06:58:26;9.80;99.90
22940;DHT22;11636;52.086;5.090;2023-04-21T07:01:21;9.90;99.90
22940;DHT22;11636;52.086;5.090;2023-04-21T07:04:17;10.00;99.90
22940;DHT22;11636;52.086;5.090;2023-04-21T07:07:14;10.00;99.90
22940;DHT22;11636;52.086;5.090;2023-04-21T07:10:09;10.10;99.90
22940;DHT22;11636;52.086;5.090;2023-04-21T07:13:02;10.10;99.90
22940;DHT22;11636;52.086;5.090;2023-04-21T07:15:50;10.30;99.90
22940;DHT22;11636;52.086;5.090;2023-04-21T07:18:43;10.40;99.90
22940;DHT22;11636;52.086;5.090;2023-04-21T07:21:37;10.50;99.90
22940;DHT22;11636;52.086;5.090;2023-04-21T07:24:25;10.70;99.90
22940;DHT22;11636;52.086;5.090;2023-04-21T07:27:18;10.70;99.90
22940;DHT22;11636;52.086;5.090;2023-04-21T07:30:13;10.80;99.90
22940;DHT22;11636;52.086;5.090;2023-04-21T07:33:00;10.90;99.90
22940;DHT22;11636;52.086;5.090;2023-04-21T07:35:53;11.00;99.90
22940;DHT22;11636;52.086;5.090;2023-04-21T07:38:47;11.10;99.90
22940;DHT22;11636;52.086;5.090;2023-04-21T07:41:35;11.10;99.90
22940;DHT22;11636;52.086;5.090;2023-04-21T07:44:28;11.20;99.90
22940;DHT22;11636;52.086;5.090;2023-04-21T07:47:16;11.30;99.90
22940;DHT22;11636;52.086;5.090;2023-04-21T07:50:10;11.30;99.90
22940;DHT22;11636;52.086;5.090;2023-04-21T07:52:57;11.30;99.90
22940;DHT22;11636;52.086;5.090;2023-04-21T07:55:51;11.40;99.90
22940;DHT22;11636;52.086;5.090;2023-04-21T07:58:38;11.50;99.90
22940;DHT22;11636;52.086;5.090;2023-04-21T08:01:31;11.50;99.90
22940;DHT22;11636;52.086;5.090;2023-04-21T08:04:21;11.60;99.90
22940;DHT22;11636;52.086;5.090;2023-04-21T08:07:15;11.70;99.90
22940;DHT22;11636;52.086;5.090;2023-04-21T08:10:09;11.80;99.90
22940;DHT22;11636;52.086;5.090;2023-04-21T08:12:56;12.00;99.90
22940;DHT22;11636;52.086;5.090;2023-04-21T08:15:53;12.10;99.90
22940;DHT22;11636;52.086;5.090;2023-04-21T08:18:41;12.20;99.90
22940;DHT22;11636;52.086;5.090;2023-04-21T08:21:35;12.20;99.90
22940;DHT22;11636;52.086;5.090;2023-04-21T08:24:23;12.20;99.90
22940;DHT22;11636;52.086;5.090;2023-04-21T08:27:16;12.20;99.90
22940;DHT22;11636;52.086;5.090;2023-04-21T08:30:04;12.30;99.90
22940;DHT22;11636;52.086;5.090;2023-04-21T08:32:59;12.30;99.90
22940;DHT22;11636;52.086;5.090;2023-04-21T08:35:53;12.50;99.90
22940;DHT22;11636;52.086;5.090;2023-04-21T08:38:53;12.70;99.90
22940;DHT22;11636;52.086;5.090;2023-04-21T08:41:48;12.80;99.90
22940;DHT22;11636;52.086;5.090;2023-04-21T08:44:36;12.90;99.90
22940;DHT22;11636;52.086;5.090;2023-04-21T08:47:31;12.90;99.90
22940;DHT22;11636;52.086;5.090;2023-04-21T08:50:19;12.90;99.90
22940;DHT22;11636;52.086;5.090;2023-04-21T08:53:14;12.90;99.90
22940;DHT22;11636;52.086;5.090;2023-04-21T08:56:02;13.10;99.90
22940;DHT22;11636;52.086;5.090;2023-04-21T08:58:57;13.30;99.90
22940;DHT22;11636;52.086;5.090;2023-04-21T09:02:07;13.50;99.90
22940;DHT22;11636;52.086;5.090;2023-04-21T09:05:02;13.60;99.90
22940;DHT22;11636;52.086;5.090;2023-04-21T09:07:50;13.80;99.90
22940;DHT22;11636;52.086;5.090;2023-04-21T09:10:44;13.90;99.90
22940;DHT22;11636;52.086;5.090;2023-04-21T09:13:42;13.90;99.90
22940;DHT22;11636;52.086;5.090;2023-04-21T09:16:36;14.00;99.90
22940;DHT22;11636;52.086;5.090;2023-04-21T09:19:29;14.00;99.90
22940;DHT22;11636;52.086;5.090;2023-04-21T09:22:26;14.30;99.90
22940;DHT22;11636;52.086;5.090;2023-04-21T09:25:22;14.50;99.90
22940;DHT22;11636;52.086;5.090;2023-04-21T09:28:13;14.60;99.90
22940;DHT22;11636;52.086;5.090;2023-04-21T09:31:16;14.60;99.90
22940;DHT22;11636;52.086;5.090;2023-04-21T09:34:20;14.40;99.90
22940;DHT22;11636;52.086;5.090;2023-04-21T09:37:10;14.30;99.90
22940;DHT22;11636;52.086;5.090;2023-04-21T09:40:05;14.30;99.90
22940;DHT22;11636;52.086;5.090;2023-04-21T09:42:52;14.30;99.90
22940;DHT22;11636;52.086;5.090;2023-04-21T09:45:46;14.40;99.90
22940;DHT22;11636;52.086;5.090;2023-04-21T09:48:34;14.40;99.90
22940;DHT22;11636;52.086;5.090;2023-04-21T09:51:30;14.40;99.90
22940;DHT22;11636;52.086;5.090;2023-04-21T09:54:41;14.50;99.90
22940;DHT22;11636;52.086;5.090;2023-04-21T09:57:38;14.50;99.90
22940;DHT22;11636;52.086;5.090;2023-04-21T10:00:32;14.50;99.90
22940;DHT22;11636;52.086;5.090;2023-04-21T10:03:26;14.50;99.90
22940;DHT22;11636;52.086;5.090;2023-04-21T10:06:22;14.60;99.90
22940;DHT22;11636;52.086;5.090;2023-04-21T10:09:10;14.80;99.90
22940;DHT22;11636;52.086;5.090;2023-04-21T10:12:07;14.90;99.90
22940;DHT22;11636;52.086;5.090;2023-04-21T10:18:24;15.00;99.90
22940;DHT22;11636;52.086;5.090;2023-04-21T10:21:20;15.00;99.90
22940;DHT22;11636;52.086;5.090;2023-04-21T10:24:15;15.00;99.90
22940;DHT22;11636;52.086;5.090;2023-04-21T10:27:10;15.00;99.90
22940;DHT22;11636;52.086;5.090;2023-04-21T10:30:23;14.90;99.90
22940;DHT22;11636;52.086;5.090;2023-04-21T10:33:22;14.80;99.90
22940;DHT22;11636;52.086;5.090;2023-04-21T10:36:23;14.80;99.90
22940;DHT22;11636;52.086;5.090;2023-04-21T10:42:24;14.80;99.90
22940;DHT22;11636;52.086;5.090;2023-04-21T10:45:19;14.90;99.90
22940;DHT22;11636;52.086;5.090;2023-04-21T10:48:12;15.00;99.90
22940;DHT22;11636;52.086;5.090;2023-04-21T10:51:06;15.00;99.90
22940;DHT22;11636;52.086;5.090;2023-04-21T10:53:53;14.90;99.90
22940;DHT22;11636;52.086;5.090;2023-04-21T10:56:54;14.90;99.90
22940;DHT22;11636;52.086;5.090;2023-04-21T10:59:41;15.10;99.90
22940;DHT22;11636;52.086;5.090;2023-04-21T11:02:36;15.20;99.90
22940;DHT22;11636;52.086;5.090;2023-04-21T11:05:32;15.20;99.90
22940;DHT22;11636;52.086;5.090;2023-04-21T11:08:28;15.40;99.90
22940;DHT22;11636;52.086;5.090;2023-04-21T11:11:21;15.60;99.90
22940;DHT22;11636;52.086;5.090;2023-04-21T11:14:16;15.70;99.90
22940;DHT22;11636;52.086;5.090;2023-04-21T11:17:09;15.70;99.90
22940;DHT22;11636;52.086;5.090;2023-04-21T11:20:03;15.70;99.90
22940;DHT22;11636;52.086;5.090;2023-04-21T11:22:55;15.70;99.90
22940;DHT22;11636;52.086;5.090;2023-04-21T11:25:49;15.70;99.90
22940;DHT22;11636;52.086;5.090;2023-04-21T11:28:39;15.70;99.90
22940;DHT22;11636;52.086;5.090;2023-04-21T11:31:39;15.70;99.90
22940;DHT22;11636;52.086;5.090;2023-04-21T11:34:27;15.70;99.90
22940;DHT22;11636;52.086;5.090;2023-04-21T11:37:25;15.60;99.90
22940;DHT22;11636;52.086;5.090;2023-04-21T11:40:13;15.60;99.90
22940;DHT22;11636;52.086;5.090;2023-04-21T11:43:07;15.80;99.90
22940;DHT22;11636;52.086;5.090;2023-04-21T11:45:54;15.90;99.90
22940;DHT22;11636;52.086;5.090;2023-04-21T11:48:57;16.10;99.90
22940;DHT22;11636;52.086;5.090;2023-04-21T11:51:45;16.20;99.90
22940;DHT22;11636;52.086;5.090;2023-04-21T11:54:39;16.30;99.90
22940;DHT22;11636;52.086;5.090;2023-04-21T11:57:33;16.30;99.90
22940;DHT22;11636;52.086;5.090;2023-04-21T12:00:20;16.40;99.90
22940;DHT22;11636;52.086;5.090;2023-04-21T12:03:14;16.50;99.90
22940;DHT22;11636;52.086;5.090;2023-04-21T12:06:08;16.70;99.90
22940;DHT22;11636;52.086;5.090;2023-04-21T12:09:02;16.80;99.90
22940;DHT22;11636;52.086;5.090;2023-04-21T12:11:58;17.10;99.90
22940;DHT22;11636;52.086;5.090;2023-04-21T12:14:45;17.40;99.90
22940;DHT22;11636;52.086;5.090;2023-04-21T12:17:59;17.60;99.90
22940;DHT22;11636;52.086;5.090;2023-04-21T12:20:53;17.60;99.90
22940;DHT22;11636;52.086;5.090;2023-04-21T12:23:40;17.80;99.90
22940;DHT22;11636;52.086;5.090;2023-04-21T12:26:34;17.70;99.90
22940;DHT22;11636;52.086;5.090;2023-04-21T12:29:21;17.40;99.90
22940;DHT22;11636;52.086;5.090;2023-04-21T12:32:15;17.10;99.90
22940;DHT22;11636;52.086;5.090;2023-04-21T12:35:09;16.90;99.90
22940;DHT22;11636;52.086;5.090;2023-04-21T12:37:57;16.80;99.90
22940;DHT22;11636;52.086;5.090;2023-04-21T12:40:50;16.90;99.90
22940;DHT22;11636;52.086;5.090;2023-04-21T12:43:37;17.20;99.90
22940;DHT22;11636;52.086;5.090;2023-04-21T12:46:31;17.50;99.90
22940;DHT22;11636;52.086;5.090;2023-04-21T12:49:19;17.80;99.90
22940;DHT22;11636;52.086;5.090;2023-04-21T12:52:13;18.10;99.90
22940;DHT22;11636;52.086;5.090;2023-04-21T12:55:07;18.40;99.90
22940;DHT22;11636;52.086;5.090;2023-04-21T12:58:01;18.50;99.90
22940;DHT22;11636;52.086;5.090;2023-04-21T13:00:55;18.50;99.90
22940;DHT22;11636;52.086;5.090;2023-04-21T13:03:42;18.50;99.90
22940;DHT22;11636;52.086;5.090;2023-04-21T13:06:37;18.40;99.90
22940;DHT22;11636;52.086;5.090;2023-04-21T13:09:31;18.50;99.90
22940;DHT22;11636;52.086;5.090;2023-04-21T13:12:18;18.50;99.90
22940;DHT22;11636;52.086;5.090;2023-04-21T13:15:12;18.90;99.90
22940;DHT22;11636;52.086;5.090;2023-04-21T13:18:06;19.00;99.90
22940;DHT22;11636;52.086;5.090;2023-04-21T13:20:53;19.00;99.90
22940;DHT22;11636;52.086;5.090;2023-04-21T13:23:47;19.00;99.90
22940;DHT22;11636;52.086;5.090;2023-04-21T13:26:41;19.10;99.90
22940;DHT22;11636;52.086;5.090;2023-04-21T13:29:35;19.20;99.90
22940;DHT22;11636;52.086;5.090;2023-04-21T13:32:29;19.50;99.90
22940;DHT22;11636;52.086;5.090;2023-04-21T13:35:16;19.90;99.90
22940;DHT22;11636;52.086;5.090;2023-04-21T13:38:11;20.10;99.90
22940;DHT22;11636;52.086;5.090;2023-04-21T13:41:05;20.00;99.90
22940;DHT22;11636;52.086;5.090;2023-04-21T13:43:53;19.80;99.90
22940;DHT22;11636;52.086;5.090;2023-04-21T13:46:46;19.70;99.90
22940;DHT22;11636;52.086;5.090;2023-04-21T13:49:40;19.50;99.90
22940;DHT22;11636;52.086;5.090;2023-04-21T13:52:34;19.20;99.90
22940;DHT22;11636;52.086;5.090;2023-04-21T13:55:28;18.60;99.90
22940;DHT22;11636;52.086;5.090;2023-04-21T13:58:22;18.20;99.90
22940;DHT22;11636;52.086;5.090;2023-04-21T14:01:09;18.10;99.90
22940;DHT22;11636;52.086;5.090;2023-04-21T14:04:07;18.10;99.90
22940;DHT22;11636;52.086;5.090;2023-04-21T14:07:02;18.30;99.90
22940;DHT22;11636;52.086;5.090;2023-04-21T14:09:49;18.40;99.90
22940;DHT22;11636;52.086;5.090;2023-04-21T14:12:44;18.60;99.90
22940;DHT22;11636;52.086;5.090;2023-04-21T14:15:31;18.80;99.90
22940;DHT22;11636;52.086;5.090;2023-04-21T14:18:25;18.90;99.90
22940;DHT22;11636;52.086;5.090;2023-04-21T14:21:12;18.70;99.90
22940;DHT22;11636;52.086;5.090;2023-04-21T14:24:06;18.50;99.90
22940;DHT22;11636;52.086;5.090;2023-04-21T14:26:54;18.60;99.90
22940;DHT22;11636;52.086;5.090;2023-04-21T14:29:54;18.60;99.90
22940;DHT22;11636;52.086;5.090;2023-04-21T14:32:49;18.60;99.90
22940;DHT22;11636;52.086;5.090;2023-04-21T14:35:42;18.50;99.90
22940;DHT22;11636;52.086;5.090;2023-04-21T14:38:36;18.30;99.90
22940;DHT22;11636;52.086;5.090;2023-04-21T14:41:30;18.10;99.90
22940;DHT22;11636;52.086;5.090;2023-04-21T14:44:24;17.80;99.90
22940;DHT22;11636;52.086;5.090;2023-04-21T14:47:11;17.60;99.90
22940;DHT22;11636;52.086;5.090;2023-04-21T14:50:06;17.40;99.90
22940;DHT22;11636;52.086;5.090;2023-04-21T14:52:59;17.20;99.90
22940;DHT22;11636;52.086;5.090;2023-04-21T14:55:53;17.20;99.90
22940;DHT22;11636;52.086;5.090;2023-04-21T14:58:40;17.20;99.90
22940;DHT22;11636;52.086;5.090;2023-04-21T15:01:34;17.40;99.90
22940;DHT22;11636;52.086;5.090;2023-04-21T15:04:29;17.70;99.90
22940;DHT22;11636;52.086;5.090;2023-04-21T15:07:16;18.10;99.90
22940;DHT22;11636;52.086;5.090;2023-04-21T15:10:11;18.50;99.90
22940;DHT22;11636;52.086;5.090;2023-04-21T15:12:58;18.90;99.90
22940;DHT22;11636;52.086;5.090;2023-04-21T15:15:52;19.10;99.90
22940;DHT22;11636;52.086;5.090;2023-04-21T15:18:39;19.00;99.90
22940;DHT22;11636;52.086;5.090;2023-04-21T15:21:33;18.80;99.90
22940;DHT22;11636;52.086;5.090;2023-04-21T15:24:27;18.50;99.90
22940;DHT22;11636;52.086;5.090;2023-04-21T15:27:14;18.40;99.90
22940;DHT22;11636;52.086;5.090;2023-04-21T15:30:09;18.60;99.90
22940;DHT22;11636;52.086;5.090;2023-04-21T15:32:56;18.80;99.90
22940;DHT22;11636;52.086;5.090;2023-04-21T15:35:49;18.90;99.90
22940;DHT22;11636;52.086;5.090;2023-04-21T15:38:43;18.90;99.90
22940;DHT22;11636;52.086;5.090;2023-04-21T15:41:37;18.80;99.90
22940;DHT22;11636;52.086;5.090;2023-04-21T15:44:31;18.70;99.90
22940;DHT22;11636;52.086;5.090;2023-04-21T15:47:20;18.60;99.90
22940;DHT22;11636;52.086;5.090;2023-04-21T15:50:14;18.60;99.90
22940;DHT22;11636;52.086;5.090;2023-04-21T15:53:05;18.60;99.90
22940;DHT22;11636;52.086;5.090;2023-04-21T15:55:58;18.70;99.90
22940;DHT22;11636;52.086;5.090;2023-04-21T15:58:45;18.80;99.90
22940;DHT22;11636;52.086;5.090;2023-04-21T16:01:39;18.80;99.90
22940;DHT22;11636;52.086;5.090;2023-04-21T16:04:26;18.90;99.90
22940;DHT22;11636;52.086;5.090;2023-04-21T16:07:21;18.80;99.90
22940;DHT22;11636;52.086;5.090;2023-04-21T16:10:14;18.70;99.90
22940;DHT22;11636;52.086;5.090;2023-04-21T16:13:08;18.60;99.90
22940;DHT22;11636;52.086;5.090;2023-04-21T16:15:56;18.40;99.90
22940;DHT22;11636;52.086;5.090;2023-04-21T16:18:49;18.20;99.90
22940;DHT22;11636;52.086;5.090;2023-04-21T16:21:37;18.10;99.90
22940;DHT22;11636;52.086;5.090;2023-04-21T16:24:32;18.10;99.90
22940;DHT22;11636;52.086;5.090;2023-04-21T16:27:20;18.10;99.90
22940;DHT22;11636;52.086;5.090;2023-04-21T16:30:13;18.00;99.90
22940;DHT22;11636;52.086;5.090;2023-04-21T16:33:01;17.90;99.90
22940;DHT22;11636;52.086;5.090;2023-04-21T16:35:55;17.70;99.90
22940;DHT22;11636;52.086;5.090;2023-04-21T16:38:43;17.40;99.90
22940;DHT22;11636;52.086;5.090;2023-04-21T16:41:37;17.20;99.90
22940;DHT22;11636;52.086;5.090;2023-04-21T16:44:24;17.10;99.90
22940;DHT22;11636;52.086;5.090;2023-04-21T16:47:18;17.00;99.90
22940;DHT22;11636;52.086;5.090;2023-04-21T16:50:06;16.90;99.90
22940;DHT22;11636;52.086;5.090;2023-04-21T16:53:00;16.80;99.90
22940;DHT22;11636;52.086;5.090;2023-04-21T16:55:54;16.70;99.90
22940;DHT22;11636;52.086;5.090;2023-04-21T16:58:42;16.70;99.90
22940;DHT22;11636;52.086;5.090;2023-04-21T17:01:35;16.60;99.90
22940;DHT22;11636;52.086;5.090;2023-04-21T17:04:29;16.60;99.90
22940;DHT22;11636;52.086;5.090;2023-04-21T17:07:24;16.50;99.90
22940;DHT22;11636;52.086;5.090;2023-04-21T17:10:17;16.40;99.90
22940;DHT22;11636;52.086;5.090;2023-04-21T17:13:05;16.40;99.90
22940;DHT22;11636;52.086;5.090;2023-04-21T17:15:59;16.40;99.90
22940;DHT22;11636;52.086;5.090;2023-04-21T17:18:54;16.30;99.90
22940;DHT22;11636;52.086;5.090;2023-04-21T17:21:48;16.30;99.90
22940;DHT22;11636;52.086;5.090;2023-04-21T17:24:36;16.30;99.90
22940;DHT22;11636;52.086;5.090;2023-04-21T17:27:39;16.30;99.90
22940;DHT22;11636;52.086;5.090;2023-04-21T17:30:27;16.20;99.90
22940;DHT22;11636;52.086;5.090;2023-04-21T17:33:21;16.10;99.90
22940;DHT22;11636;52.086;5.090;2023-04-21T17:36:08;16.00;99.90
22940;DHT22;11636;52.086;5.090;2023-04-21T17:39:02;15.90;99.90
22940;DHT22;11636;52.086;5.090;2023-04-21T17:41:56;15.80;99.90
22940;DHT22;11636;52.086;5.090;2023-04-21T17:44:44;15.80;99.90
22940;DHT22;11636;52.086;5.090;2023-04-21T17:47:37;15.80;99.90
22940;DHT22;11636;52.086;5.090;2023-04-21T17:50:25;15.80;99.90
22940;DHT22;11636;52.086;5.090;2023-04-21T17:53:19;15.80;99.90
22940;DHT22;11636;52.086;5.090;2023-04-21T17:56:13;15.80;99.90
22940;DHT22;11636;52.086;5.090;2023-04-21T17:59:01;15.80;99.90
22940;DHT22;11636;52.086;5.090;2023-04-21T18:01:54;15.80;99.90
22940;DHT22;11636;52.086;5.090;2023-04-21T18:04:43;15.90;99.90
22940;DHT22;11636;52.086;5.090;2023-04-21T18:07:39;15.90;99.90
22940;DHT22;11636;52.086;5.090;2023-04-21T18:10:26;16.00;99.90
22940;DHT22;11636;52.086;5.090;2023-04-21T18:13:20;16.00;99.90
22940;DHT22;11636;52.086;5.090;2023-04-21T18:16:07;15.90;99.90
22940;DHT22;11636;52.086;5.090;2023-04-21T18:19:01;15.80;99.90
22940;DHT22;11636;52.086;5.090;2023-04-21T18:21:55;15.60;99.90